sensor_id;sensor_type;location;lat;lon;timestamp;P1;durP1;ratioP1;P2;durP2;ratioP2
75073;SDS011;63652;51.526;5.080;2023-08-21T00:01:51;5.43;;;1.10;;
75073;SDS011;63652;51.526;5.080;2023-08-21T00:04:17;5.03;;;1.30;;
75073;SDS011;63652;51.526;5.080;2023-08-21T00:06:43;4.85;;;1.50;;
75073;SDS011;63652;51.526;5.080;2023-08-21T00:09:08;10.23;;;1.17;;
75073;SDS011;63652;51.526;5.080;2023-08-21T00:11:37;5.03;;;1.23;;
75073;SDS011;63652;51.526;5.080;2023-08-21T00:14:02;4.75;;;1.23;;
75073;SDS011;63652;51.526;5.080;2023-08-21T00:16:27;5.63;;;1.17;;
75073;SDS011;63652;51.526;5.080;2023-08-21T00:18:53;6.40;;;1.30;;
75073;SDS011;63652;51.526;5.080;2023-08-21T00:21:19;4.82;;;1.33;;
75073;SDS011;63652;51.526;5.080;2023-08-21T00:23:45;5.75;;;1.20;;
75073;SDS011;63652;51.526;5.080;2023-08-21T00:26:11;3.85;;;1.35;;
75073;SDS011;63652;51.526;5.080;2023-08-21T00:28:37;6.85;;;1.50;;
75073;SDS011;63652;51.526;5.080;2023-08-21T00:31:03;4.82;;;1.40;;
75073;SDS011;63652;51.526;5.080;2023-08-21T00:33:30;3.28;;;1.13;;
75073;SDS011;63652;51.526;5.080;2023-08-21T00:35:56;5.40;;;1.17;;
75073;SDS011;63652;51.526;5.080;2023-08-21T00:38:22;4.65;;;1.45;;
75073;SDS011;63652;51.526;5.080;2023-08-21T00:40:48;2.45;;;1.10;;
75073;SDS011;63652;51.526;5.080;2023-08-21T00:43:13;3.17;;;1.02;;
75073;SDS011;63652;51.526;5.080;2023-08-21T00:45:39;4.18;;;1.33;;
75073;SDS011;63652;51.526;5.080;2023-08-21T00:48:06;5.18;;;1.85;;
75073;SDS011;63652;51.526;5.080;2023-08-21T00:50:32;4.05;;;1.38;;
75073;SDS011;63652;51.526;5.080;2023-08-21T00:52:57;7.53;;;2.20;;
75073;SDS011;63652;51.526;5.080;2023-08-21T00:55:23;6.50;;;2.13;;
75073;SDS011;63652;51.526;5.080;2023-08-21T00:57:49;5.35;;;1.85;;
75073;SDS011;63652;51.526;5.080;2023-08-21T01:00:14;4.30;;;1.42;;
75073;SDS011;63652;51.526;5.080;2023-08-21T01:02:40;5.03;;;2.15;;
75073;SDS011;63652;51.526;5.080;2023-08-21T01:05:07;4.53;;;2.28;;
75073;SDS011;63652;51.526;5.080;2023-08-21T01:07:35;6.93;;;2.50;;
75073;SDS011;63652;51.526;5.080;2023-08-21T01:10:07;5.85;;;2.03;;
75073;SDS011;63652;51.526;5.080;2023-08-21T01:12:56;5.80;;;2.00;;
75073;SDS011;63652;51.526;5.080;2023-08-21T01:15:27;5.63;;;2.00;;
75073;SDS011;63652;51.526;5.080;2023-08-21T01:17:53;4.75;;;1.70;;
75073;SDS011;63652;51.526;5.080;2023-08-21T01:20:19;4.95;;;1.80;;
75073;SDS011;63652;51.526;5.080;2023-08-21T01:22:45;4.45;;;1.88;;
75073;SDS011;63652;51.526;5.080;2023-08-21T01:25:11;6.10;;;2.15;;
75073;SDS011;63652;51.526;5.080;2023-08-21T01:27:37;4.25;;;2.40;;
75073;SDS011;63652;51.526;5.080;2023-08-21T01:30:06;4.00;;;1.88;;
75073;SDS011;63652;51.526;5.080;2023-08-21T01:32:34;5.75;;;2.58;;
75073;SDS011;63652;51.526;5.080;2023-08-21T01:35:19;7.40;;;2.00;;
75073;SDS011;63652;51.526;5.080;2023-08-21T01:37:45;6.22;;;2.05;;
75073;SDS011;63652;51.526;5.080;2023-08-21T01:40:11;4.72;;;2.08;;
75073;SDS011;63652;51.526;5.080;2023-08-21T01:42:36;7.30;;;2.50;;
75073;SDS011;63652;51.526;5.080;2023-08-21T01:45:02;5.40;;;1.63;;
75073;SDS011;63652;51.526;5.080;2023-08-21T01:47:27;5.70;;;2.00;;
75073;SDS011;63652;51.526;5.080;2023-08-21T01:49:53;4.75;;;1.45;;
75073;SDS011;63652;51.526;5.080;2023-08-21T01:52:18;5.97;;;1.77;;
75073;SDS011;63652;51.526;5.080;2023-08-21T01:54:44;3.40;;;1.70;;
75073;SDS011;63652;51.526;5.080;2023-08-21T01:57:10;4.53;;;1.52;;
75073;SDS011;63652;51.526;5.080;2023-08-21T01:59:35;6.10;;;1.80;;
75073;SDS011;63652;51.526;5.080;2023-08-21T02:02:01;8.05;;;1.52;;
75073;SDS011;63652;51.526;5.080;2023-08-21T02:04:26;5.53;;;1.23;;
75073;SDS011;63652;51.526;5.080;2023-08-21T02:06:51;5.32;;;1.77;;
75073;SDS011;63652;51.526;5.080;2023-08-21T02:09:17;4.40;;;1.60;;
75073;SDS011;63652;51.526;5.080;2023-08-21T02:11:42;4.18;;;1.77;;
75073;SDS011;63652;51.526;5.080;2023-08-21T02:14:08;4.85;;;1.95;;
75073;SDS011;63652;51.526;5.080;2023-08-21T02:16:33;2.95;;;1.70;;
75073;SDS011;63652;51.526;5.080;2023-08-21T02:18:59;8.00;;;1.80;;
75073;SDS011;63652;51.526;5.080;2023-08-21T02:21:24;8.50;;;1.77;;
75073;SDS011;63652;51.526;5.080;2023-08-21T02:23:50;4.63;;;1.45;;
75073;SDS011;63652;51.526;5.080;2023-08-21T02:26:15;6.60;;;1.33;;
75073;SDS011;63652;51.526;5.080;2023-08-21T02:28:41;4.57;;;1.40;;
75073;SDS011;63652;51.526;5.080;2023-08-21T02:31:11;6.38;;;1.63;;
75073;SDS011;63652;51.526;5.080;2023-08-21T02:33:37;5.47;;;1.65;;
75073;SDS011;63652;51.526;5.080;2023-08-21T02:36:03;4.07;;;1.23;;
75073;SDS011;63652;51.526;5.080;2023-08-21T02:38:28;5.18;;;1.60;;
75073;SDS011;63652;51.526;5.080;2023-08-21T02:40:54;4.30;;;1.50;;
75073;SDS011;63652;51.526;5.080;2023-08-21T02:43:19;4.18;;;1.60;;
75073;SDS011;63652;51.526;5.080;2023-08-21T02:45:45;4.03;;;2.25;;
75073;SDS011;63652;51.526;5.080;2023-08-21T02:48:11;4.70;;;1.15;;
75073;SDS011;63652;51.526;5.080;2023-08-21T02:50:36;3.50;;;1.35;;
75073;SDS011;63652;51.526;5.080;2023-08-21T02:53:02;5.28;;;1.52;;
75073;SDS011;63652;51.526;5.080;2023-08-21T02:55:27;4.07;;;1.60;;
75073;SDS011;63652;51.526;5.080;2023-08-21T02:57:53;4.38;;;1.60;;
75073;SDS011;63652;51.526;5.080;2023-08-21T03:00:18;5.10;;;1.42;;
75073;SDS011;63652;51.526;5.080;2023-08-21T03:02:44;4.88;;;1.75;;
75073;SDS011;63652;51.526;5.080;2023-08-21T03:05:10;2.70;;;1.20;;
75073;SDS011;63652;51.526;5.080;2023-08-21T03:07:36;3.53;;;1.20;;
75073;SDS011;63652;51.526;5.080;2023-08-21T03:10:01;6.35;;;1.65;;
75073;SDS011;63652;51.526;5.080;2023-08-21T03:12:27;3.60;;;1.60;;
75073;SDS011;63652;51.526;5.080;2023-08-21T03:14:53;4.40;;;1.50;;
75073;SDS011;63652;51.526;5.080;2023-08-21T03:17:18;4.43;;;1.77;;
75073;SDS011;63652;51.526;5.080;2023-08-21T03:19:44;4.03;;;1.50;;
75073;SDS011;63652;51.526;5.080;2023-08-21T03:22:09;5.35;;;1.88;;
75073;SDS011;63652;51.526;5.080;2023-08-21T03:24:35;3.83;;;1.70;;
75073;SDS011;63652;51.526;5.080;2023-08-21T03:27:01;3.55;;;1.65;;
75073;SDS011;63652;51.526;5.080;2023-08-21T03:29:26;2.78;;;1.35;;
75073;SDS011;63652;51.526;5.080;2023-08-21T03:31:52;4.63;;;1.88;;
75073;SDS011;63652;51.526;5.080;2023-08-21T03:34:21;3.33;;;1.50;;
75073;SDS011;63652;51.526;5.080;2023-08-21T03:36:46;2.90;;;1.55;;
75073;SDS011;63652;51.526;5.080;2023-08-21T03:39:12;4.50;;;2.33;;
75073;SDS011;63652;51.526;5.080;2023-08-21T03:41:37;4.10;;;1.40;;
75073;SDS011;63652;51.526;5.080;2023-08-21T03:44:03;2.22;;;1.20;;
75073;SDS011;63652;51.526;5.080;2023-08-21T03:46:28;4.90;;;1.27;;
75073;SDS011;63652;51.526;5.080;2023-08-21T03:48:54;6.10;;;1.60;;
75073;SDS011;63652;51.526;5.080;2023-08-21T03:51:19;5.90;;;1.45;;
75073;SDS011;63652;51.526;5.080;2023-08-21T03:53:45;3.25;;;1.67;;
75073;SDS011;63652;51.526;5.080;2023-08-21T03:56:10;4.53;;;1.70;;
75073;SDS011;63652;51.526;5.080;2023-08-21T03:58:35;2.97;;;1.30;;
75073;SDS011;63652;51.526;5.080;2023-08-21T04:01:01;5.30;;;1.50;;
75073;SDS011;63652;51.526;5.080;2023-08-21T04:03:27;4.57;;;1.55;;
75073;SDS011;63652;51.526;5.080;2023-08-21T04:05:55;5.85;;;1.65;;
75073;SDS011;63652;51.526;5.080;2023-08-21T04:08:24;3.67;;;1.17;;
75073;SDS011;63652;51.526;5.080;2023-08-21T04:10:49;6.00;;;1.27;;
75073;SDS011;63652;51.526;5.080;2023-08-21T04:13:17;5.40;;;2.03;;
75073;SDS011;63652;51.526;5.080;2023-08-21T04:15:46;3.50;;;1.60;;
75073;SDS011;63652;51.526;5.080;2023-08-21T04:18:13;4.40;;;1.33;;
75073;SDS011;63652;51.526;5.080;2023-08-21T04:20:38;4.97;;;1.42;;
75073;SDS011;63652;51.526;5.080;2023-08-21T04:23:04;2.47;;;1.42;;
75073;SDS011;63652;51.526;5.080;2023-08-21T04:25:29;3.40;;;1.50;;
75073;SDS011;63652;51.526;5.080;2023-08-21T04:27:54;5.05;;;1.70;;
75073;SDS011;63652;51.526;5.080;2023-08-21T04:30:20;3.30;;;1.35;;
75073;SDS011;63652;51.526;5.080;2023-08-21T04:32:47;4.15;;;1.58;;
75073;SDS011;63652;51.526;5.080;2023-08-21T04:35:13;3.88;;;1.52;;
75073;SDS011;63652;51.526;5.080;2023-08-21T04:37:42;5.07;;;1.77;;
75073;SDS011;63652;51.526;5.080;2023-08-21T04:40:10;2.28;;;1.35;;
75073;SDS011;63652;51.526;5.080;2023-08-21T04:42:36;2.97;;;1.27;;
75073;SDS011;63652;51.526;5.080;2023-08-21T04:45:01;8.35;;;1.92;;
75073;SDS011;63652;51.526;5.080;2023-08-21T04:47:27;5.35;;;1.80;;
75073;SDS011;63652;51.526;5.080;2023-08-21T04:49:53;4.80;;;1.77;;
75073;SDS011;63652;51.526;5.080;2023-08-21T04:52:19;5.43;;;2.35;;
75073;SDS011;63652;51.526;5.080;2023-08-21T04:54:46;6.82;;;1.95;;
75073;SDS011;63652;51.526;5.080;2023-08-21T04:57:12;4.18;;;2.05;;
75073;SDS011;63652;51.526;5.080;2023-08-21T04:59:37;5.85;;;1.60;;
75073;SDS011;63652;51.526;5.080;2023-08-21T05:02:03;7.03;;;1.88;;
75073;SDS011;63652;51.526;5.080;2023-08-21T05:04:28;4.47;;;2.10;;
75073;SDS011;63652;51.526;5.080;2023-08-21T05:06:54;6.53;;;1.88;;
75073;SDS011;63652;51.526;5.080;2023-08-21T05:09:19;5.35;;;1.85;;
75073;SDS011;63652;51.526;5.080;2023-08-21T05:11:45;2.42;;;1.30;;
75073;SDS011;63652;51.526;5.080;2023-08-21T05:14:10;3.47;;;1.63;;
75073;SDS011;63652;51.526;5.080;2023-08-21T05:16:36;4.57;;;1.80;;
75073;SDS011;63652;51.526;5.080;2023-08-21T05:19:01;3.22;;;1.42;;
75073;SDS011;63652;51.526;5.080;2023-08-21T05:21:27;4.35;;;1.60;;
75073;SDS011;63652;51.526;5.080;2023-08-21T05:23:52;4.40;;;1.60;;
75073;SDS011;63652;51.526;5.080;2023-08-21T05:26:18;4.35;;;1.60;;
75073;SDS011;63652;51.526;5.080;2023-08-21T05:28:44;5.40;;;1.83;;
75073;SDS011;63652;51.526;5.080;2023-08-21T05:31:09;5.05;;;2.08;;
75073;SDS011;63652;51.526;5.080;2023-08-21T05:33:35;4.30;;;2.00;;
75073;SDS011;63652;51.526;5.080;2023-08-21T05:36:00;4.82;;;2.17;;
75073;SDS011;63652;51.526;5.080;2023-08-21T05:38:26;5.00;;;2.00;;
75073;SDS011;63652;51.526;5.080;2023-08-21T05:40:51;4.55;;;1.90;;
75073;SDS011;63652;51.526;5.080;2023-08-21T05:43:17;7.65;;;2.20;;
75073;SDS011;63652;51.526;5.080;2023-08-21T05:45:42;6.90;;;2.70;;
75073;SDS011;63652;51.526;5.080;2023-08-21T05:48:08;6.07;;;3.05;;
75073;SDS011;63652;51.526;5.080;2023-08-21T05:50:33;9.60;;;3.97;;
75073;SDS011;63652;51.526;5.080;2023-08-21T05:53:01;6.03;;;2.95;;
75073;SDS011;63652;51.526;5.080;2023-08-21T05:55:28;5.82;;;2.60;;
75073;SDS011;63652;51.526;5.080;2023-08-21T05:57:53;4.75;;;2.63;;
75073;SDS011;63652;51.526;5.080;2023-08-21T06:00:19;4.82;;;2.60;;
75073;SDS011;63652;51.526;5.080;2023-08-21T06:02:44;3.90;;;2.72;;
75073;SDS011;63652;51.526;5.080;2023-08-21T06:05:10;7.72;;;3.30;;
75073;SDS011;63652;51.526;5.080;2023-08-21T06:07:35;4.88;;;2.80;;
75073;SDS011;63652;51.526;5.080;2023-08-21T06:10:01;6.97;;;4.47;;
75073;SDS011;63652;51.526;5.080;2023-08-21T06:12:26;5.25;;;2.85;;
75073;SDS011;63652;51.526;5.080;2023-08-21T06:14:52;7.95;;;3.10;;
75073;SDS011;63652;51.526;5.080;2023-08-21T06:17:17;8.65;;;3.90;;
75073;SDS011;63652;51.526;5.080;2023-08-21T06:19:43;8.60;;;3.42;;
75073;SDS011;63652;51.526;5.080;2023-08-21T06:22:08;6.13;;;3.42;;
75073;SDS011;63652;51.526;5.080;2023-08-21T06:24:34;8.27;;;3.38;;
75073;SDS011;63652;51.526;5.080;2023-08-21T06:26:59;9.55;;;3.78;;
75073;SDS011;63652;51.526;5.080;2023-08-21T06:29:25;6.75;;;4.03;;
75073;SDS011;63652;51.526;5.080;2023-08-21T06:31:50;8.60;;;3.80;;
75073;SDS011;63652;51.526;5.080;2023-08-21T06:34:15;6.15;;;3.58;;
75073;SDS011;63652;51.526;5.080;2023-08-21T06:36:41;7.10;;;3.97;;
75073;SDS011;63652;51.526;5.080;2023-08-21T06:39:06;6.57;;;4.18;;
75073;SDS011;63652;51.526;5.080;2023-08-21T06:41:31;9.57;;;4.60;;
75073;SDS011;63652;51.526;5.080;2023-08-21T06:43:57;8.52;;;4.25;;
75073;SDS011;63652;51.526;5.080;2023-08-21T06:46:23;8.18;;;5.38;;
75073;SDS011;63652;51.526;5.080;2023-08-21T06:48:48;9.20;;;4.50;;
75073;SDS011;63652;51.526;5.080;2023-08-21T06:51:15;8.48;;;4.72;;
75073;SDS011;63652;51.526;5.080;2023-08-21T06:53:41;9.18;;;4.50;;
75073;SDS011;63652;51.526;5.080;2023-08-21T06:56:06;8.63;;;4.15;;
75073;SDS011;63652;51.526;5.080;2023-08-21T06:58:32;11.07;;;4.38;;
75073;SDS011;63652;51.526;5.080;2023-08-21T07:00:57;12.52;;;5.95;;
75073;SDS011;63652;51.526;5.080;2023-08-21T07:03:23;13.95;;;5.13;;
75073;SDS011;63652;51.526;5.080;2023-08-21T07:05:59;8.15;;;5.22;;
75073;SDS011;63652;51.526;5.080;2023-08-21T07:08:25;10.10;;;5.40;;
75073;SDS011;63652;51.526;5.080;2023-08-21T07:10:51;9.00;;;4.20;;
75073;SDS011;63652;51.526;5.080;2023-08-21T07:13:17;6.95;;;3.35;;
75073;SDS011;63652;51.526;5.080;2023-08-21T07:15:43;5.88;;;2.72;;
75073;SDS011;63652;51.526;5.080;2023-08-21T07:18:08;6.82;;;2.58;;
75073;SDS011;63652;51.526;5.080;2023-08-21T07:20:34;9.40;;;3.25;;
75073;SDS011;63652;51.526;5.080;2023-08-21T07:23:00;10.27;;;3.00;;
75073;SDS011;63652;51.526;5.080;2023-08-21T07:25:25;8.55;;;2.55;;
75073;SDS011;63652;51.526;5.080;2023-08-21T07:27:51;11.55;;;3.00;;
75073;SDS011;63652;51.526;5.080;2023-08-21T07:30:18;7.22;;;2.38;;
75073;SDS011;63652;51.526;5.080;2023-08-21T07:32:44;6.35;;;1.75;;
75073;SDS011;63652;51.526;5.080;2023-08-21T07:35:09;7.55;;;2.10;;
75073;SDS011;63652;51.526;5.080;2023-08-21T07:37:35;6.18;;;2.15;;
75073;SDS011;63652;51.526;5.080;2023-08-21T07:40:01;5.97;;;2.53;;
75073;SDS011;63652;51.526;5.080;2023-08-21T07:42:27;9.50;;;2.58;;
75073;SDS011;63652;51.526;5.080;2023-08-21T07:44:52;8.50;;;2.58;;
75073;SDS011;63652;51.526;5.080;2023-08-21T07:47:17;6.25;;;2.05;;
75073;SDS011;63652;51.526;5.080;2023-08-21T07:49:43;5.82;;;2.22;;
75073;SDS011;63652;51.526;5.080;2023-08-21T07:52:08;5.35;;;2.25;;
75073;SDS011;63652;51.526;5.080;2023-08-21T07:54:33;6.40;;;1.80;;
75073;SDS011;63652;51.526;5.080;2023-08-21T07:56:59;4.25;;;1.73;;
75073;SDS011;63652;51.526;5.080;2023-08-21T07:59:25;8.25;;;2.17;;
75073;SDS011;63652;51.526;5.080;2023-08-21T08:01:50;6.75;;;1.88;;
75073;SDS011;63652;51.526;5.080;2023-08-21T08:04:15;7.47;;;2.13;;
75073;SDS011;63652;51.526;5.080;2023-08-21T08:06:41;8.32;;;1.60;;
75073;SDS011;63652;51.526;5.080;2023-08-21T08:09:07;5.82;;;1.52;;
75073;SDS011;63652;51.526;5.080;2023-08-21T08:11:32;11.20;;;2.28;;
75073;SDS011;63652;51.526;5.080;2023-08-21T08:13:58;6.93;;;1.63;;
75073;SDS011;63652;51.526;5.080;2023-08-21T08:16:24;8.93;;;1.77;;
75073;SDS011;63652;51.526;5.080;2023-08-21T08:18:49;5.28;;;1.40;;
75073;SDS011;63652;51.526;5.080;2023-08-21T08:21:14;6.22;;;1.50;;
75073;SDS011;63652;51.526;5.080;2023-08-21T08:23:40;4.18;;;1.40;;
75073;SDS011;63652;51.526;5.080;2023-08-21T08:26:05;4.55;;;1.50;;
75073;SDS011;63652;51.526;5.080;2023-08-21T08:28:31;4.82;;;1.20;;
75073;SDS011;63652;51.526;5.080;2023-08-21T08:30:57;4.40;;;1.35;;
75073;SDS011;63652;51.526;5.080;2023-08-21T08:33:22;3.33;;;1.35;;
75073;SDS011;63652;51.526;5.080;2023-08-21T08:35:48;2.92;;;1.20;;
75073;SDS011;63652;51.526;5.080;2023-08-21T08:38:14;3.40;;;1.15;;
75073;SDS011;63652;51.526;5.080;2023-08-21T08:40:44;8.27;;;1.42;;
75073;SDS011;63652;51.526;5.080;2023-08-21T08:43:13;5.93;;;1.35;;
75073;SDS011;63652;51.526;5.080;2023-08-21T08:45:43;5.38;;;1.15;;
75073;SDS011;63652;51.526;5.080;2023-08-21T08:48:10;5.80;;;1.80;;
75073;SDS011;63652;51.526;5.080;2023-08-21T08:50:35;7.18;;;1.83;;
75073;SDS011;63652;51.526;5.080;2023-08-21T08:53:02;3.75;;;1.30;;
75073;SDS011;63652;51.526;5.080;2023-08-21T08:55:28;4.63;;;1.08;;
75073;SDS011;63652;51.526;5.080;2023-08-21T08:57:55;8.30;;;1.50;;
75073;SDS011;63652;51.526;5.080;2023-08-21T09:00:20;4.32;;;1.10;;
75073;SDS011;63652;51.526;5.080;2023-08-21T09:02:47;4.97;;;1.40;;
75073;SDS011;63652;51.526;5.080;2023-08-21T09:05:12;3.83;;;1.80;;
75073;SDS011;63652;51.526;5.080;2023-08-21T09:07:38;5.43;;;1.60;;
75073;SDS011;63652;51.526;5.080;2023-08-21T09:10:04;11.50;;;2.10;;
75073;SDS011;63652;51.526;5.080;2023-08-21T09:12:37;5.40;;;1.20;;
75073;SDS011;63652;51.526;5.080;2023-08-21T09:15:06;4.93;;;1.40;;
75073;SDS011;63652;51.526;5.080;2023-08-21T09:17:32;4.80;;;1.10;;
75073;SDS011;63652;51.526;5.080;2023-08-21T09:20:03;3.25;;;1.85;;
75073;SDS011;63652;51.526;5.080;2023-08-21T09:22:29;7.95;;;1.40;;
75073;SDS011;63652;51.526;5.080;2023-08-21T09:27:36;4.85;;;1.17;;
75073;SDS011;63652;51.526;5.080;2023-08-21T09:30:03;6.70;;;1.50;;
75073;SDS011;63652;51.526;5.080;2023-08-21T09:32:29;5.97;;;1.25;;
75073;SDS011;63652;51.526;5.080;2023-08-21T09:34:55;4.93;;;1.23;;
75073;SDS011;63652;51.526;5.080;2023-08-21T09:37:21;5.10;;;1.60;;
75073;SDS011;63652;51.526;5.080;2023-08-21T09:39:54;5.88;;;1.45;;
75073;SDS011;63652;51.526;5.080;2023-08-21T09:42:19;3.42;;;1.30;;
75073;SDS011;63652;51.526;5.080;2023-08-21T09:44:46;4.28;;;0.90;;
75073;SDS011;63652;51.526;5.080;2023-08-21T09:47:13;2.90;;;0.82;;
75073;SDS011;63652;51.526;5.080;2023-08-21T09:49:39;3.20;;;0.90;;
75073;SDS011;63652;51.526;5.080;2023-08-21T09:52:05;3.28;;;0.50;;
75073;SDS011;63652;51.526;5.080;2023-08-21T09:54:31;2.05;;;0.47;;
75073;SDS011;63652;51.526;5.080;2023-08-21T09:57:00;1.80;;;0.57;;
75073;SDS011;63652;51.526;5.080;2023-08-21T09:59:27;3.33;;;0.75;;
75073;SDS011;63652;51.526;5.080;2023-08-21T10:01:53;3.30;;;0.98;;
75073;SDS011;63652;51.526;5.080;2023-08-21T10:04:20;4.80;;;1.17;;
75073;SDS011;63652;51.526;5.080;2023-08-21T10:06:47;2.83;;;0.70;;
75073;SDS011;63652;51.526;5.080;2023-08-21T10:09:13;5.10;;;1.10;;
75073;SDS011;63652;51.526;5.080;2023-08-21T10:11:39;4.60;;;1.25;;
75073;SDS011;63652;51.526;5.080;2023-08-21T10:14:05;3.10;;;0.82;;
75073;SDS011;63652;51.526;5.080;2023-08-21T10:16:33;2.92;;;0.63;;
75073;SDS011;63652;51.526;5.080;2023-08-21T10:19:01;3.42;;;0.52;;
75073;SDS011;63652;51.526;5.080;2023-08-21T10:21:30;3.63;;;0.88;;
75073;SDS011;63652;51.526;5.080;2023-08-21T10:24:00;2.53;;;0.77;;
75073;SDS011;63652;51.526;5.080;2023-08-21T10:26:25;4.80;;;1.00;;
75073;SDS011;63652;51.526;5.080;2023-08-21T10:28:53;3.90;;;0.90;;
75073;SDS011;63652;51.526;5.080;2023-08-21T10:31:37;2.90;;;0.60;;
75073;SDS011;63652;51.526;5.080;2023-08-21T10:34:05;5.15;;;1.00;;
75073;SDS011;63652;51.526;5.080;2023-08-21T10:41:54;4.28;;;0.93;;
75073;SDS011;63652;51.526;5.080;2023-08-21T10:44:35;2.63;;;0.82;;
75073;SDS011;63652;51.526;5.080;2023-08-21T10:47:16;4.20;;;0.82;;
75073;SDS011;63652;51.526;5.080;2023-08-21T10:49:52;2.97;;;1.02;;
75073;SDS011;63652;51.526;5.080;2023-08-21T10:52:22;6.13;;;1.20;;
75073;SDS011;63652;51.526;5.080;2023-08-21T10:54:54;2.78;;;0.80;;
75073;SDS011;63652;51.526;5.080;2023-08-21T10:57:22;5.38;;;0.80;;
75073;SDS011;63652;51.526;5.080;2023-08-21T11:02:21;2.15;;;0.60;;
75073;SDS011;63652;51.526;5.080;2023-08-21T11:04:48;2.38;;;1.10;;
75073;SDS011;63652;51.526;5.080;2023-08-21T11:07:14;3.13;;;0.73;;
75073;SDS011;63652;51.526;5.080;2023-08-21T11:09:42;2.55;;;0.75;;
75073;SDS011;63652;51.526;5.080;2023-08-21T11:12:13;2.90;;;0.70;;
75073;SDS011;63652;51.526;5.080;2023-08-21T11:14:46;1.23;;;0.40;;
75073;SDS011;63652;51.526;5.080;2023-08-21T11:17:12;4.75;;;0.80;;
75073;SDS011;63652;51.526;5.080;2023-08-21T11:19:38;1.83;;;0.52;;
75073;SDS011;63652;51.526;5.080;2023-08-21T11:22:05;2.85;;;1.08;;
75073;SDS011;63652;51.526;5.080;2023-08-21T11:24:38;4.40;;;0.60;;
75073;SDS011;63652;51.526;5.080;2023-08-21T11:27:13;4.13;;;0.75;;
75073;SDS011;63652;51.526;5.080;2023-08-21T11:29:44;2.38;;;0.80;;
75073;SDS011;63652;51.526;5.080;2023-08-21T11:32:14;1.02;;;0.38;;
75073;SDS011;63652;51.526;5.080;2023-08-21T11:34:42;4.63;;;0.88;;
75073;SDS011;63652;51.526;5.080;2023-08-21T11:37:09;1.63;;;0.73;;
75073;SDS011;63652;51.526;5.080;2023-08-21T11:39:41;2.22;;;1.10;;
75073;SDS011;63652;51.526;5.080;2023-08-21T11:42:08;3.30;;;0.85;;
75073;SDS011;63652;51.526;5.080;2023-08-21T11:44:43;4.38;;;1.00;;
75073;SDS011;63652;51.526;5.080;2023-08-21T11:47:10;4.40;;;1.10;;
75073;SDS011;63652;51.526;5.080;2023-08-21T11:49:37;2.05;;;1.10;;
75073;SDS011;63652;51.526;5.080;2023-08-21T11:52:04;5.60;;;0.85;;
75073;SDS011;63652;51.526;5.080;2023-08-21T11:54:36;2.45;;;0.70;;
75073;SDS011;63652;51.526;5.080;2023-08-21T11:59:37;3.53;;;0.80;;
75073;SDS011;63652;51.526;5.080;2023-08-21T12:02:36;4.45;;;1.45;;
75073;SDS011;63652;51.526;5.080;2023-08-21T12:05:00;3.20;;;1.42;;
75073;SDS011;63652;51.526;5.080;2023-08-21T12:07:27;6.25;;;1.30;;
75073;SDS011;63652;51.526;5.080;2023-08-21T12:09:52;4.45;;;1.20;;
75073;SDS011;63652;51.526;5.080;2023-08-21T12:12:18;24.48;;;4.53;;
75073;SDS011;63652;51.526;5.080;2023-08-21T12:14:43;6.72;;;0.90;;
75073;SDS011;63652;51.526;5.080;2023-08-21T12:17:09;13.10;;;2.95;;
75073;SDS011;63652;51.526;5.080;2023-08-21T12:19:34;10.77;;;2.40;;
75073;SDS011;63652;51.526;5.080;2023-08-21T12:22:00;8.48;;;1.80;;
75073;SDS011;63652;51.526;5.080;2023-08-21T12:24:28;3.70;;;1.73;;
75073;SDS011;63652;51.526;5.080;2023-08-21T12:26:53;2.97;;;1.27;;
75073;SDS011;63652;51.526;5.080;2023-08-21T12:29:19;3.63;;;1.02;;
75073;SDS011;63652;51.526;5.080;2023-08-21T12:31:44;3.47;;;1.50;;
75073;SDS011;63652;51.526;5.080;2023-08-21T12:34:10;3.53;;;0.75;;
75073;SDS011;63652;51.526;5.080;2023-08-21T12:36:36;3.45;;;1.33;;
75073;SDS011;63652;51.526;5.080;2023-08-21T12:39:05;2.92;;;0.98;;
75073;SDS011;63652;51.526;5.080;2023-08-21T12:41:31;2.63;;;0.60;;
75073;SDS011;63652;51.526;5.080;2023-08-21T12:44:00;1.92;;;0.80;;
75073;SDS011;63652;51.526;5.080;2023-08-21T12:46:26;2.60;;;0.75;;
75073;SDS011;63652;51.526;5.080;2023-08-21T12:48:52;3.50;;;0.73;;
75073;SDS011;63652;51.526;5.080;2023-08-21T12:51:18;7.55;;;1.63;;
75073;SDS011;63652;51.526;5.080;2023-08-21T12:53:44;4.97;;;0.60;;
75073;SDS011;63652;51.526;5.080;2023-08-21T12:56:09;3.53;;;0.80;;
75073;SDS011;63652;51.526;5.080;2023-08-21T12:58:35;18.15;;;3.17;;
75073;SDS011;63652;51.526;5.080;2023-08-21T13:01:00;9.07;;;1.60;;
75073;SDS011;63652;51.526;5.080;2023-08-21T13:03:26;12.35;;;1.45;;
75073;SDS011;63652;51.526;5.080;2023-08-21T13:05:53;21.55;;;2.95;;
75073;SDS011;63652;51.526;5.080;2023-08-21T13:08:19;10.73;;;1.40;;
75073;SDS011;63652;51.526;5.080;2023-08-21T13:10:44;4.72;;;1.10;;
75073;SDS011;63652;51.526;5.080;2023-08-21T13:13:10;2.80;;;0.82;;
75073;SDS011;63652;51.526;5.080;2023-08-21T13:15:36;3.03;;;0.50;;
75073;SDS011;63652;51.526;5.080;2023-08-21T13:18:01;3.80;;;0.73;;
75073;SDS011;63652;51.526;5.080;2023-08-21T13:20:27;56.70;;;6.90;;
75073;SDS011;63652;51.526;5.080;2023-08-21T13:22:56;13.48;;;2.38;;
75073;SDS011;63652;51.526;5.080;2023-08-21T13:25:24;3.53;;;1.45;;
75073;SDS011;63652;51.526;5.080;2023-08-21T13:27:50;2.88;;;0.60;;
75073;SDS011;63652;51.526;5.080;2023-08-21T13:30:16;2.45;;;0.40;;
75073;SDS011;63652;51.526;5.080;2023-08-21T13:32:42;1.98;;;0.40;;
75073;SDS011;63652;51.526;5.080;2023-08-21T13:35:07;1.80;;;0.55;;
75073;SDS011;63652;51.526;5.080;2023-08-21T13:37:35;7.13;;;0.90;;
75073;SDS011;63652;51.526;5.080;2023-08-21T13:40:01;3.35;;;0.50;;
75073;SDS011;63652;51.526;5.080;2023-08-21T13:42:34;1.60;;;0.70;;
75073;SDS011;63652;51.526;5.080;2023-08-21T13:45:05;2.33;;;0.50;;
75073;SDS011;63652;51.526;5.080;2023-08-21T13:47:36;3.60;;;0.50;;
75073;SDS011;63652;51.526;5.080;2023-08-21T13:50:02;2.38;;;0.40;;
75073;SDS011;63652;51.526;5.080;2023-08-21T13:52:30;2.03;;;0.50;;
75073;SDS011;63652;51.526;5.080;2023-08-21T13:54:55;3.20;;;0.50;;
75073;SDS011;63652;51.526;5.080;2023-08-21T13:57:21;1.27;;;0.40;;
75073;SDS011;63652;51.526;5.080;2023-08-21T13:59:46;2.42;;;0.50;;
75073;SDS011;63652;51.526;5.080;2023-08-21T14:02:11;4.22;;;0.73;;
75073;SDS011;63652;51.526;5.080;2023-08-21T14:04:37;3.17;;;1.52;;
75073;SDS011;63652;51.526;5.080;2023-08-21T14:07:02;2.55;;;0.52;;
75073;SDS011;63652;51.526;5.080;2023-08-21T14:09:30;3.92;;;0.60;;
75073;SDS011;63652;51.526;5.080;2023-08-21T14:11:56;2.33;;;0.98;;
75073;SDS011;63652;51.526;5.080;2023-08-21T14:14:21;25.25;;;3.00;;
75073;SDS011;63652;51.526;5.080;2023-08-21T14:16:47;11.75;;;1.52;;
75073;SDS011;63652;51.526;5.080;2023-08-21T14:19:12;13.10;;;2.63;;
75073;SDS011;63652;51.526;5.080;2023-08-21T14:21:38;3.55;;;0.70;;
75073;SDS011;63652;51.526;5.080;2023-08-21T14:24:03;25.63;;;4.70;;
75073;SDS011;63652;51.526;5.080;2023-08-21T14:26:28;1.23;;;0.43;;
75073;SDS011;63652;51.526;5.080;2023-08-21T14:28:54;1.80;;;0.50;;
75073;SDS011;63652;51.526;5.080;2023-08-21T14:31:19;2.30;;;0.50;;
75073;SDS011;63652;51.526;5.080;2023-08-21T14:33:45;1.98;;;0.28;;
75073;SDS011;63652;51.526;5.080;2023-08-21T14:36:10;1.95;;;0.40;;
75073;SDS011;63652;51.526;5.080;2023-08-21T14:38:36;0.88;;;0.35;;
75073;SDS011;63652;51.526;5.080;2023-08-21T14:41:01;1.15;;;0.32;;
75073;SDS011;63652;51.526;5.080;2023-08-21T14:43:27;1.75;;;0.38;;
75073;SDS011;63652;51.526;5.080;2023-08-21T14:45:53;2.50;;;0.70;;
75073;SDS011;63652;51.526;5.080;2023-08-21T14:48:19;1.98;;;0.40;;
75073;SDS011;63652;51.526;5.080;2023-08-21T14:50:44;1.95;;;0.40;;
75073;SDS011;63652;51.526;5.080;2023-08-21T14:53:10;1.40;;;0.47;;
75073;SDS011;63652;51.526;5.080;2023-08-21T14:55:35;2.08;;;0.82;;
75073;SDS011;63652;51.526;5.080;2023-08-21T14:58:01;2.35;;;0.60;;